Time,TemperatureF,DewpointF,PressureIn,WindDirection,WindDirectionDegrees,WindSpeedMPH,WindSpeedGustMPH,Humidity,HourlyPrecipIn,Conditions,Clouds,dailyrainin,SolarRadiationWatts/m^2,SoftwareType,DateUTC
2013-02-04 00:02:00,14.3,12.4,29.99,SW,226,0.0,0.0,92,0.00,,,0.00,0,WeatherHawk,2013-02-04 06:02:00,
2013-02-04 00:07:00,14.3,12.4,29.99,SW,226,0.0,0.0,92,0.00,,,0.00,0,WeatherHawk,2013-02-04 06:07:00,
2013-02-04 00:12:00,14.2,12.4,29.98,SW,226,0.0,0.0,92,0.00,,,0.00,0,WeatherHawk,2013-02-04 06:12:00,
2013-02-04 00:17:00,14.3,12.4,29.98,SW,226,0.0,0.0,92,0.00,,,0.00,0,WeatherHawk,2013-02-04 06:17:00,
2013-02-04 00:22:00,14.2,12.3,29.99,SW,226,0.0,0.0,92,0.00,,,0.00,0,WeatherHawk,2013-02-04 06:22:00,
2013-02-04 00:28:00,14.2,12.3,29.98,SW,226,0.0,0.0,92,0.00,,,0.00,0,WeatherHawk,2013-02-04 06:28:00,
2013-02-04 00:33:00,14.3,12.4,29.98,SW,226,0.0,0.0,92,0.00,,,0.00,0,WeatherHawk,2013-02-04 06:33:00,
2013-02-04 00:38:00,14.2,12.3,29.97,SW,226,0.0,0.0,92,0.00,,,0.00,0,WeatherHawk,2013-02-04 06:38:00,
2013-02-04 00:43:00,14.3,12.6,29.97,SW,226,0.0,0.0,93,0.00,,,0.00,0,WeatherHawk,2013-02-04 06:43:00,
2013-02-04 00:48:00,14.3,12.7,29.96,East,90,0.0,0.0,93,0.00,,,0.00,0,WeatherHawk,2013-02-04 06:48:00,
2013-02-04 00:53:00,14.3,12.7,29.97,East,90,0.0,0.0,93,0.00,,,0.00,0,WeatherHawk,2013-02-04 06:53:00,
2013-02-04 00:58:00,14.4,12.7,29.97,East,90,0.0,0.0,93,0.00,,,0.00,1,WeatherHawk,2013-02-04 06:58:00,
2013-02-04 01:03:00,14.4,12.8,29.97,NE,43,0.0,0.0,93,0.00,,,0.00,0,WeatherHawk,2013-02-04 07:03:00,
2013-02-04 01:08:00,14.4,12.7,29.97,NNE,20,0.0,0.0,93,0.00,,,0.00,0,WeatherHawk,2013-02-04 07:08:00,
2013-02-04 01:13:00,14.3,12.7,29.97,NNE,30,1.0,0.0,93,0.00,,,0.00,0,WeatherHawk,2013-02-04 07:13:00,
2013-02-04 01:18:00,14.2,12.6,29.97,North,9,1.0,0.0,93,0.00,,,0.00,0,WeatherHawk,2013-02-04 07:18:00,
2013-02-04 01:23:00,14.2,12.5,29.97,NNE,28,0.0,3.0,93,0.00,,,0.00,0,WeatherHawk,2013-02-04 07:23:00,
2013-02-04 01:28:00,14.1,12.4,29.97,NE,43,0.0,3.0,93,0.00,,,0.00,0,WeatherHawk,2013-02-04 07:28:00,
2013-02-04 01:33:00,14.2,12.3,29.96,ENE,62,0.0,3.0,92,0.00,,,0.00,0,WeatherHawk,2013-02-04 07:33:00,
2013-02-04 01:38:00,14.0,12.1,29.95,East,101,2.0,3.0,92,0.00,,,0.00,0,WeatherHawk,2013-02-04 07:38:00,
2013-02-04 01:43:00,14.0,12.1,29.95,NE,45,2.0,2.0,92,0.00,,,0.00,0,WeatherHawk,2013-02-04 07:43:00,
2013-02-04 01:48:00,14.1,12.2,29.95,NE,48,0.0,2.0,92,0.00,,,0.00,0,WeatherHawk,2013-02-04 07:48:00,
2013-02-04 01:53:00,14.1,11.9,29.95,NNE,23,0.0,3.0,91,0.00,,,0.00,0,WeatherHawk,2013-02-04 07:53:00,
2013-02-04 01:58:00,14.1,12.0,29.95,NE,49,2.0,3.0,91,0.00,,,0.00,0,WeatherHawk,2013-02-04 07:58:00,
2013-02-04 02:03:00,14.1,11.7,29.95,NE,39,4.0,4.0,90,0.00,,,0.00,0,WeatherHawk,2013-02-04 08:03:00,
2013-02-04 02:08:00,14.1,11.7,29.95,NE,39,0.0,3.0,90,0.00,,,0.00,0,WeatherHawk,2013-02-04 08:08:00,
2013-02-04 02:13:00,14.0,11.6,29.95,NE,52,2.0,4.0,90,0.00,,,0.00,0,WeatherHawk,2013-02-04 08:13:00,
2013-02-04 02:18:00,13.9,11.6,29.95,NNE,23,2.0,4.0,90,0.00,,,0.00,0,WeatherHawk,2013-02-04 08:18:00,
2013-02-04 02:23:00,13.9,11.5,29.95,ENE,70,5.0,5.0,90,0.00,,,0.00,0,WeatherHawk,2013-02-04 08:23:00,
2013-02-04 02:28:00,13.9,11.6,29.95,NE,38,0.0,4.0,90,0.00,,,0.00,0,WeatherHawk,2013-02-04 08:28:00,
2013-02-04 02:33:00,13.9,11.5,29.94,ENE,75,3.0,5.0,90,0.00,,,0.00,0,WeatherHawk,2013-02-04 08:33:00,
2013-02-04 02:39:00,13.9,11.7,29.94,ENE,72,4.0,5.0,91,0.00,,,0.00,0,WeatherHawk,2013-02-04 08:39:00,
2013-02-04 02:44:00,13.9,11.7,29.94,NE,51,3.0,6.0,91,0.00,,,0.00,0,WeatherHawk,2013-02-04 08:44:00,
2013-02-04 02:49:00,13.8,11.9,29.93,ENE,74,3.0,6.0,92,0.00,,,0.00,0,WeatherHawk,2013-02-04 08:49:00,
2013-02-04 02:54:00,13.5,11.4,29.93,NE,50,2.0,5.0,91,0.00,,,0.00,0,WeatherHawk,2013-02-04 08:54:00,
2013-02-04 02:59:00,13.3,11.1,29.93,NNE,25,1.0,5.0,91,0.00,,,0.00,0,WeatherHawk,2013-02-04 08:59:00,
2013-02-04 03:05:00,13.1,10.8,29.93,NE,50,3.0,6.0,90,0.00,,,0.00,0,WeatherHawk,2013-02-04 09:05:00,
2013-02-04 03:10:00,13.1,10.7,29.93,NE,40,4.0,6.0,90,0.00,,,0.00,0,WeatherHawk,2013-02-04 09:10:00,
2013-02-04 03:15:00,13.0,10.6,29.94,NE,55,3.0,6.0,90,0.00,,,0.00,0,WeatherHawk,2013-02-04 09:15:00,
2013-02-04 03:20:00,13.0,10.7,29.93,NNE,12,2.0,6.0,90,0.00,,,0.00,1,WeatherHawk,2013-02-04 09:20:00,
2013-02-04 03:25:00,13.0,10.6,29.93,NNE,19,2.0,5.0,90,0.00,,,0.00,0,WeatherHawk,2013-02-04 09:25:00,
2013-02-04 03:30:00,12.9,10.3,29.93,ENE,59,3.0,5.0,89,0.00,,,0.00,0,WeatherHawk,2013-02-04 09:30:00,
2013-02-04 03:35:00,12.8,10.2,29.93,NE,43,1.0,4.0,89,0.00,,,0.00,0,WeatherHawk,2013-02-04 09:35:00,
2013-02-04 03:40:00,12.8,10.2,29.93,ENE,69,0.0,4.0,89,0.00,,,0.00,0,WeatherHawk,2013-02-04 09:40:00,
2013-02-04 03:45:00,12.9,10.3,29.94,NNE,28,0.0,5.0,89,0.00,,,0.00,0,WeatherHawk,2013-02-04 09:45:00,
2013-02-04 03:50:00,12.8,10.2,29.93,NE,41,2.0,5.0,89,0.00,,,0.00,1,WeatherHawk,2013-02-04 09:50:00,
2013-02-04 03:55:00,12.7,10.1,29.93,NNE,24,3.0,5.0,89,0.00,,,0.00,0,WeatherHawk,2013-02-04 09:55:00,
2013-02-04 04:00:00,12.7,10.1,29.93,NE,54,4.0,5.0,89,0.00,,,0.00,0,WeatherHawk,2013-02-04 10:00:00,
2013-02-04 04:05:00,12.7,10.3,29.93,NE,55,3.0,5.0,90,0.00,,,0.00,0,WeatherHawk,2013-02-04 10:05:00,
2013-02-04 04:10:00,12.7,10.3,29.93,NNE,24,1.0,5.0,90,0.00,,,0.00,0,WeatherHawk,2013-02-04 10:10:00,
2013-02-04 04:15:00,12.7,10.3,29.92,NNE,13,2.0,6.0,90,0.00,,,0.00,0,WeatherHawk,2013-02-04 10:15:00,
2013-02-04 04:20:00,12.7,10.3,29.93,NNE,16,2.0,6.0,90,0.00,,,0.00,0,WeatherHawk,2013-02-04 10:20:00,
2013-02-04 04:25:00,12.7,10.3,29.93,NE,56,3.0,-999.0,90,0.00,,,0.00,0,WeatherHawk,2013-02-04 10:25:00,
2013-02-04 04:30:00,12.7,10.3,29.93,NNE,14,3.0,-999.0,90,0.00,,,0.00,0,WeatherHawk,2013-02-04 10:30:00,
2013-02-04 04:35:00,12.6,10.0,29.94,NE,45,3.0,5.0,89,0.00,,,0.00,0,WeatherHawk,2013-02-04 10:35:00,
2013-02-04 04:40:00,12.7,10.1,29.93,NE,53,3.0,5.0,89,0.00,,,0.00,0,WeatherHawk,2013-02-04 10:40:00,
2013-02-04 04:45:00,12.7,10.1,29.93,NNE,29,6.0,6.0,89,0.00,,,0.00,0,WeatherHawk,2013-02-04 10:45:00,
2013-02-04 04:50:00,12.8,10.1,29.94,NE,38,1.0,6.0,89,0.00,,,0.00,0,WeatherHawk,2013-02-04 10:50:00,
2013-02-04 04:55:00,12.7,10.1,29.93,NE,52,4.0,-999.0,89,0.00,,,0.00,0,WeatherHawk,2013-02-04 10:55:00,
2013-02-04 05:00:00,12.7,10.1,29.93,NNE,31,1.0,5.0,89,0.00,,,0.00,0,WeatherHawk,2013-02-04 11:00:00,
2013-02-04 05:05:00,12.7,9.9,29.93,NE,40,4.0,7.0,88,0.00,,,0.00,0,WeatherHawk,2013-02-04 11:05:00,
2013-02-04 05:10:00,12.8,9.9,29.94,NE,44,3.0,7.0,88,0.00,,,0.00,0,WeatherHawk,2013-02-04 11:10:00,
2013-02-04 05:15:00,12.8,9.9,29.93,ENE,73,4.0,6.0,88,0.00,,,0.00,0,WeatherHawk,2013-02-04 11:15:00,
2013-02-04 05:20:00,12.8,10.2,29.93,NE,49,4.0,6.0,89,0.00,,,0.00,0,WeatherHawk,2013-02-04 11:20:00,
2013-02-04 05:25:00,12.7,10.1,29.93,NE,54,5.0,6.0,89,0.00,,,0.00,0,WeatherHawk,2013-02-04 11:25:00,
2013-02-04 05:30:00,12.8,10.2,29.93,ENE,72,0.0,-999.0,89,0.00,,,0.00,0,WeatherHawk,2013-02-04 11:30:00,
2013-02-04 05:35:00,12.8,10.2,29.93,ENE,62,2.0,6.0,89,0.00,,,0.00,0,WeatherHawk,2013-02-04 11:35:00,
2013-02-04 05:40:00,12.8,10.1,29.93,NNE,19,4.0,6.0,89,0.00,,,0.00,0,WeatherHawk,2013-02-04 11:40:00,
2013-02-04 05:45:00,12.8,10.2,29.92,ENE,61,4.0,6.0,89,0.00,,,0.00,0,WeatherHawk,2013-02-04 11:45:00,
2013-02-04 05:50:00,12.7,10.1,29.93,NE,48,4.0,6.0,89,0.00,,,0.00,0,WeatherHawk,2013-02-04 11:50:00,
2013-02-04 05:55:00,12.7,10.1,29.93,NE,48,3.0,6.0,89,0.00,,,0.00,0,WeatherHawk,2013-02-04 11:55:00,
2013-02-04 06:00:00,12.6,10.0,29.94,NE,47,5.0,6.0,89,0.00,,,0.00,0,WeatherHawk,2013-02-04 12:00:00,
2013-02-04 06:05:00,12.5,9.9,29.93,NE,56,5.0,7.0,89,0.00,,,0.00,0,WeatherHawk,2013-02-04 12:05:00,
2013-02-04 06:10:00,12.5,9.6,29.93,NE,56,4.0,7.0,88,0.00,,,0.00,0,WeatherHawk,2013-02-04 12:10:00,
2013-02-04 06:15:00,12.5,9.6,29.93,NE,53,4.0,6.0,88,0.00,,,0.00,0,WeatherHawk,2013-02-04 12:15:00,
2013-02-04 06:20:00,12.4,9.3,29.93,NNE,28,5.0,6.0,87,0.00,,,0.00,0,WeatherHawk,2013-02-04 12:20:00,
2013-02-04 06:25:00,12.4,9.2,29.94,NE,36,8.0,8.0,87,0.00,,,0.00,0,WeatherHawk,2013-02-04 12:25:00,
2013-02-04 06:30:00,12.3,9.2,29.93,NNE,25,5.0,7.0,87,0.00,,,0.00,0,WeatherHawk,2013-02-04 12:30:00,
2013-02-04 06:35:00,12.1,9.0,29.94,NNE,17,4.0,8.0,87,0.00,,,0.00,0,WeatherHawk,2013-02-04 12:35:00,
2013-02-04 06:40:00,11.9,8.8,29.94,NNE,25,2.0,-999.0,87,0.00,,,0.00,0,WeatherHawk,2013-02-04 12:40:00,
2013-02-04 06:45:00,11.8,8.7,29.94,NNE,30,8.0,8.0,87,0.00,,,0.00,0,WeatherHawk,2013-02-04 12:45:00,
2013-02-04 06:50:00,11.7,8.6,29.94,NE,54,3.0,8.0,87,0.00,,,0.00,0,WeatherHawk,2013-02-04 12:50:00,
2013-02-04 06:55:00,11.6,8.3,29.93,ENE,57,7.0,7.0,86,0.00,,,0.00,1,WeatherHawk,2013-02-04 12:55:00,
2013-02-04 07:00:00,11.5,8.4,29.94,NE,55,4.0,7.0,87,0.00,,,0.00,0,WeatherHawk,2013-02-04 13:00:00,
2013-02-04 07:05:00,11.5,8.1,29.94,NNE,24,4.0,10.0,86,0.00,,,0.00,0,WeatherHawk,2013-02-04 13:05:00,
2013-02-04 07:10:00,11.4,8.0,29.94,North,4,4.0,10.0,86,0.00,,,0.00,3,WeatherHawk,2013-02-04 13:10:00,
2013-02-04 07:15:00,11.4,8.0,29.94,NNE,23,5.0,8.0,86,0.00,,,0.00,3,WeatherHawk,2013-02-04 13:15:00,
2013-02-04 07:20:00,11.4,8.0,29.94,North,0,4.0,8.0,86,0.00,,,0.00,5,WeatherHawk,2013-02-04 13:20:00,
2013-02-04 07:25:00,11.4,8.1,29.94,North,8,1.0,7.0,86,0.00,,,0.00,9,WeatherHawk,2013-02-04 13:25:00,
2013-02-04 07:30:00,11.4,7.8,29.94,ENE,71,5.0,7.0,85,0.00,,,0.00,12,WeatherHawk,2013-02-04 13:30:00,
2013-02-04 07:35:00,11.5,7.9,29.94,ENE,65,4.0,9.0,85,0.00,,,0.00,14,WeatherHawk,2013-02-04 13:35:00,
2013-02-04 07:40:00,11.5,7.7,29.95,NNE,31,6.0,9.0,84,0.00,,,0.00,15,WeatherHawk,2013-02-04 13:40:00,
2013-02-04 07:45:00,11.7,7.8,29.94,NNE,29,5.0,8.0,84,0.00,,,0.00,22,WeatherHawk,2013-02-04 13:45:00,
2013-02-04 07:50:00,11.7,7.5,29.95,NNE,26,4.0,8.0,83,0.00,,,0.00,27,WeatherHawk,2013-02-04 13:50:00,
2013-02-04 07:55:00,11.7,7.6,29.95,NNE,28,3.0,7.0,83,0.00,,,0.00,30,WeatherHawk,2013-02-04 13:55:00,
2013-02-04 08:00:00,11.7,7.3,29.95,NNE,31,3.0,7.0,82,0.00,,,0.00,35,WeatherHawk,2013-02-04 14:00:00,
2013-02-04 08:05:00,11.8,7.4,29.95,NNE,29,4.0,7.0,82,0.00,,,0.00,43,WeatherHawk,2013-02-04 14:05:00,
2013-02-04 08:10:00,11.8,7.1,29.95,North,10,5.0,7.0,81,0.00,,,0.00,57,WeatherHawk,2013-02-04 14:10:00,
2013-02-04 08:15:00,11.8,7.1,29.96,NE,45,5.0,6.0,81,0.00,,,0.00,61,WeatherHawk,2013-02-04 14:15:00,
2013-02-04 08:20:00,11.8,7.1,29.96,NE,38,5.0,6.0,81,0.00,,,0.00,61,WeatherHawk,2013-02-04 14:20:00,
2013-02-04 08:25:00,12.0,7.3,29.95,NNW,344,4.0,8.0,81,0.00,,,0.00,71,WeatherHawk,2013-02-04 14:25:00,
2013-02-04 08:30:00,11.8,6.9,29.95,NE,48,3.0,8.0,80,0.00,,,0.00,64,WeatherHawk,2013-02-04 14:30:00,
2013-02-04 08:35:00,11.9,7.0,29.95,NE,49,5.0,7.0,80,0.00,,,0.00,81,WeatherHawk,2013-02-04 14:35:00,
2013-02-04 08:40:00,12.2,7.0,29.95,North,0,4.0,7.0,79,0.00,,,0.00,87,WeatherHawk,2013-02-04 14:40:00,
2013-02-04 08:45:00,11.9,6.4,29.95,NNE,28,7.0,8.0,78,0.00,,,0.00,88,WeatherHawk,2013-02-04 14:45:00,
2013-02-04 08:50:00,12.0,6.4,29.95,NE,48,4.0,8.0,78,0.00,,,0.00,90,WeatherHawk,2013-02-04 14:50:00,
2013-02-04 08:55:00,12.2,6.4,29.95,North,7,5.0,7.0,77,0.00,,,0.00,92,WeatherHawk,2013-02-04 14:55:00,
2013-02-04 09:00:00,12.3,6.5,29.95,North,5,5.0,7.0,77,0.00,,,0.00,95,WeatherHawk,2013-02-04 15:00:00,
2013-02-04 09:05:00,12.4,6.3,29.95,NE,36,4.0,8.0,76,0.00,,,0.00,101,WeatherHawk,2013-02-04 15:05:00,
2013-02-04 09:10:00,12.4,6.0,29.95,NNW,347,5.0,8.0,75,0.00,,,0.00,111,WeatherHawk,2013-02-04 15:10:00,
2013-02-04 09:15:00,12.6,6.2,29.95,NNE,22,2.0,7.0,75,0.00,,,0.00,113,WeatherHawk,2013-02-04 15:15:00,
2013-02-04 09:20:00,12.4,5.7,29.96,North,3,4.0,7.0,74,0.00,,,0.00,116,WeatherHawk,2013-02-04 15:20:00,
2013-02-04 09:25:00,12.6,5.9,29.95,North,10,4.0,8.0,74,0.00,,,0.00,119,WeatherHawk,2013-02-04 15:25:00,
2013-02-04 09:30:00,12.5,5.8,29.95,NNE,27,3.0,8.0,74,0.00,,,0.00,129,WeatherHawk,2013-02-04 15:30:00,
2013-02-04 09:35:00,12.5,5.5,29.95,NE,35,4.0,8.0,73,0.00,,,0.00,131,WeatherHawk,2013-02-04 15:35:00,
2013-02-04 09:40:00,12.3,4.7,29.96,NNE,24,6.0,8.0,71,0.00,,,0.00,137,WeatherHawk,2013-02-04 15:40:00,
2013-02-04 09:45:00,12.4,5.2,29.96,NNE,16,5.0,8.0,72,0.00,,,0.00,142,WeatherHawk,2013-02-04 15:45:00,
2013-02-04 09:50:00,12.6,5.3,29.96,NNE,22,4.0,8.0,72,0.00,,,0.00,150,WeatherHawk,2013-02-04 15:50:00,
2013-02-04 09:55:00,12.7,5.4,29.96,North,2,4.0,8.0,72,0.00,,,0.00,156,WeatherHawk,2013-02-04 15:55:00,
2013-02-04 10:00:00,12.6,4.7,29.96,NE,38,8.0,-999.0,70,0.00,,,0.00,167,WeatherHawk,2013-02-04 16:00:00,
2013-02-04 10:05:00,12.5,4.9,29.96,North,2,5.0,7.0,71,0.00,,,0.00,176,WeatherHawk,2013-02-04 16:05:00,
2013-02-04 10:10:00,12.6,4.7,29.96,NNE,13,8.0,8.0,70,0.00,,,0.00,191,WeatherHawk,2013-02-04 16:10:00,
2013-02-04 10:15:00,12.9,4.7,29.96,NE,52,4.0,8.0,69,0.00,,,0.00,200,WeatherHawk,2013-02-04 16:15:00,
2013-02-04 10:20:00,12.8,4.2,29.96,NNE,12,6.0,8.0,68,0.00,,,0.00,208,WeatherHawk,2013-02-04 16:20:00,
2013-02-04 10:25:00,12.5,4.0,29.96,NE,42,4.0,9.0,68,0.00,,,0.00,206,WeatherHawk,2013-02-04 16:25:00,
2013-02-04 10:30:00,14.0,5.4,29.96,North,9,3.0,9.0,68,0.00,,,0.00,228,WeatherHawk,2013-02-04 16:30:00,
2013-02-04 10:35:00,13.2,4.3,29.96,North,11,4.0,7.0,67,0.00,,,0.00,226,WeatherHawk,2013-02-04 16:35:00,
2013-02-04 10:40:00,13.9,5.0,29.96,NNE,12,4.0,7.0,67,0.00,,,0.00,240,WeatherHawk,2013-02-04 16:40:00,
2013-02-04 10:45:00,13.4,3.9,29.96,NNW,339,6.0,7.0,65,0.00,,,0.00,241,WeatherHawk,2013-02-04 16:45:00,
2013-02-04 10:50:00,13.3,3.8,29.96,North,0,5.0,7.0,65,0.00,,,0.00,237,WeatherHawk,2013-02-04 16:50:00,
2013-02-04 10:55:00,13.8,4.6,29.97,NNE,23,4.0,8.0,66,0.00,,,0.00,228,WeatherHawk,2013-02-04 16:55:00,
2013-02-04 11:00:00,13.5,3.6,29.97,NNE,22,4.0,8.0,64,0.00,,,0.00,228,WeatherHawk,2013-02-04 17:00:00,
2013-02-04 11:05:00,13.1,3.2,29.96,NE,43,4.0,8.0,64,0.00,,,0.00,233,WeatherHawk,2013-02-04 17:05:00,
2013-02-04 11:10:00,13.3,3.5,29.97,NNE,20,6.0,-999.0,64,0.00,,,0.00,235,WeatherHawk,2013-02-04 17:10:00,
2013-02-04 11:15:00,13.6,3.3,29.97,NNE,15,4.0,-999.0,63,0.00,,,0.00,251,WeatherHawk,2013-02-04 17:15:00,
2013-02-04 11:20:00,13.5,2.9,29.97,NNE,12,6.0,8.0,62,0.00,,,0.00,262,WeatherHawk,2013-02-04 17:20:00,
2013-02-04 11:25:00,12.8,1.9,29.97,NE,35,9.0,9.0,61,0.00,,,0.00,279,WeatherHawk,2013-02-04 17:25:00,
2013-02-04 11:30:00,13.6,2.3,29.97,NNE,20,6.0,9.0,60,0.00,,,0.00,287,WeatherHawk,2013-02-04 17:30:00,
2013-02-04 11:35:00,13.3,1.3,29.97,North,1,8.0,8.0,58,0.00,,,0.00,282,WeatherHawk,2013-02-04 17:35:00,
2013-02-04 11:40:00,13.8,1.4,29.97,NE,55,6.0,8.0,57,0.00,,,0.00,281,WeatherHawk,2013-02-04 17:40:00,
2013-02-04 11:45:00,14.5,1.7,29.97,NNW,348,4.0,9.0,56,0.00,,,0.00,298,WeatherHawk,2013-02-04 17:45:00,
2013-02-04 11:50:00,13.4,-0.5,29.97,NNE,16,6.0,9.0,53,0.00,,,0.00,291,WeatherHawk,2013-02-04 17:50:00,
2013-02-04 11:55:00,13.7,0.2,29.97,North,351,5.0,9.0,54,0.00,,,0.00,301,WeatherHawk,2013-02-04 17:55:00,
2013-02-04 12:00:00,14.2,-0.2,29.96,NNE,15,4.0,9.0,52,0.00,,,0.00,323,WeatherHawk,2013-02-04 18:00:00,
2013-02-04 12:05:00,14.3,-0.1,29.96,NNW,343,7.0,10.0,52,0.00,,,0.00,337,WeatherHawk,2013-02-04 18:05:00,
2013-02-04 12:10:00,14.3,0.0,29.96,NNE,12,9.0,10.0,52,0.00,,,0.00,326,WeatherHawk,2013-02-04 18:10:00,
2013-02-04 12:15:00,14.1,-0.6,29.97,North,0,7.0,8.0,51,0.00,,,0.00,308,WeatherHawk,2013-02-04 18:15:00,
2013-02-04 12:20:00,14.6,-0.2,29.97,North,351,7.0,8.0,51,0.00,,,0.00,323,WeatherHawk,2013-02-04 18:20:00,
2013-02-04 12:25:00,14.3,-0.9,29.96,North,10,4.0,9.0,50,0.00,,,0.00,319,WeatherHawk,2013-02-04 18:25:00,
2013-02-04 12:30:00,14.7,-0.1,29.97,NNE,17,6.0,9.0,51,0.00,,,0.00,307,WeatherHawk,2013-02-04 18:30:00,
2013-02-04 12:35:00,14.3,-0.5,29.97,NE,38,7.0,9.0,51,0.00,,,0.00,303,WeatherHawk,2013-02-04 18:35:00,
2013-02-04 12:40:00,14.9,0.5,29.97,NNE,12,4.0,9.0,52,0.00,,,0.00,301,WeatherHawk,2013-02-04 18:40:00,
2013-02-04 12:45:00,14.5,-0.3,29.97,NNE,33,6.0,7.0,51,0.00,,,0.00,310,WeatherHawk,2013-02-04 18:45:00,
2013-02-04 12:50:00,14.5,-0.7,29.97,North,0,7.0,-999.0,50,0.00,,,0.00,321,WeatherHawk,2013-02-04 18:50:00,
2013-02-04 12:55:00,15.1,-0.6,29.97,North,9,5.0,8.0,49,0.00,,,0.00,331,WeatherHawk,2013-02-04 18:55:00,
2013-02-04 13:00:00,14.8,-0.5,29.97,North,350,8.0,8.0,50,0.00,,,0.00,343,WeatherHawk,2013-02-04 19:00:00,
2013-02-04 13:05:00,14.9,-0.7,29.97,North,0,7.0,8.0,49,0.00,,,0.00,355,WeatherHawk,2013-02-04 19:05:00,
2013-02-04 13:10:00,15.0,-0.3,29.97,NNE,31,6.0,8.0,50,0.00,,,0.00,350,WeatherHawk,2013-02-04 19:10:00,
2013-02-04 13:15:00,15.4,0.1,29.97,NNE,14,5.0,8.0,50,0.00,,,0.00,334,WeatherHawk,2013-02-04 19:15:00,
2013-02-04 13:20:00,15.7,0.4,29.97,NNW,344,6.0,8.0,50,0.00,,,0.00,453,WeatherHawk,2013-02-04 19:20:00,
2013-02-04 13:25:00,15.2,-1.0,29.98,NNE,21,5.0,8.0,48,0.00,,,0.00,326,WeatherHawk,2013-02-04 19:25:00,
2013-02-04 13:30:00,14.6,-1.5,29.97,North,7,5.0,8.0,48,0.00,,,0.00,290,WeatherHawk,2013-02-04 19:30:00,
2013-02-04 13:35:00,15.0,-0.7,29.97,North,0,5.0,10.0,49,0.00,,,0.00,289,WeatherHawk,2013-02-04 19:35:00,
2013-02-04 13:40:00,15.6,-1.5,29.96,NNE,25,3.0,10.0,46,0.00,,,0.00,401,WeatherHawk,2013-02-04 19:40:00,
2013-02-04 13:45:00,15.5,-1.6,29.96,North,0,6.0,8.0,46,0.00,,,0.00,470,WeatherHawk,2013-02-04 19:45:00,
2013-02-04 13:50:00,16.0,-2.0,29.95,North,0,4.0,8.0,44,0.00,,,0.00,449,WeatherHawk,2013-02-04 19:50:00,
2013-02-04 13:55:00,14.8,-4.1,29.94,NE,50,6.0,8.0,42,0.00,,,0.00,441,WeatherHawk,2013-02-04 19:55:00,
2013-02-04 14:00:00,15.4,-3.6,29.94,NE,40,4.0,8.0,42,0.00,,,0.00,430,WeatherHawk,2013-02-04 20:00:00,
2013-02-04 14:05:00,15.4,-3.5,29.95,NNW,330,5.0,7.0,42,0.00,,,0.00,422,WeatherHawk,2013-02-04 20:05:00,
2013-02-04 14:10:00,15.5,-4.0,29.94,NNE,31,4.0,7.0,41,0.00,,,0.00,412,WeatherHawk,2013-02-04 20:10:00,
2013-02-04 14:15:00,15.0,-3.9,29.94,ENE,60,3.0,8.0,42,0.00,,,0.00,404,WeatherHawk,2013-02-04 20:15:00,
2013-02-04 14:20:00,14.2,-5.6,29.94,ENE,76,6.0,8.0,40,0.00,,,0.00,394,WeatherHawk,2013-02-04 20:20:00,
2013-02-04 14:25:00,15.8,-3.2,29.94,NE,36,1.0,7.0,42,0.00,,,0.00,384,WeatherHawk,2013-02-04 20:25:00,
2013-02-04 14:30:00,15.1,-4.3,29.94,NE,47,4.0,7.0,41,0.00,,,0.00,371,WeatherHawk,2013-02-04 20:30:00,
2013-02-04 14:35:00,15.9,-2.1,29.93,NE,38,0.0,6.0,44,0.00,,,0.00,361,WeatherHawk,2013-02-04 20:35:00,
2013-02-04 14:40:00,14.9,-3.5,29.94,NE,56,3.0,6.0,43,0.00,,,0.00,352,WeatherHawk,2013-02-04 20:40:00,
2013-02-04 14:45:00,14.9,-3.0,29.93,NE,35,4.0,5.0,44,0.00,,,0.00,340,WeatherHawk,2013-02-04 20:45:00,
2013-02-04 14:50:00,14.7,-4.2,29.93,NE,52,4.0,5.0,42,0.00,,,0.00,329,WeatherHawk,2013-02-04 20:50:00,
2013-02-04 14:55:00,14.6,-3.8,29.94,NNE,16,5.0,-999.0,43,0.00,,,0.00,316,WeatherHawk,2013-02-04 20:55:00,
2013-02-04 15:00:00,15.3,-3.1,29.95,NNE,23,2.0,6.0,43,0.00,,,0.00,304,WeatherHawk,2013-02-04 21:00:00,
2013-02-04 15:05:00,14.9,-3.5,29.94,North,5,2.0,-999.0,43,0.00,,,0.00,294,WeatherHawk,2013-02-04 21:05:00,
2013-02-04 15:10:00,14.9,-3.5,29.94,North,8,2.0,6.0,43,0.00,,,0.00,282,WeatherHawk,2013-02-04 21:10:00,
2013-02-04 15:15:00,14.8,-2.6,29.95,North,7,3.0,6.0,45,0.00,,,0.00,271,WeatherHawk,2013-02-04 21:15:00,
2013-02-04 15:21:00,14.4,-3.0,29.95,NE,51,2.0,5.0,45,0.00,,,0.00,256,WeatherHawk,2013-02-04 21:21:00,
2013-02-04 15:27:00,14.0,-3.4,29.95,ENE,58,3.0,5.0,45,0.00,,,0.00,240,WeatherHawk,2013-02-04 21:27:00,
2013-02-04 15:32:00,13.8,-3.1,29.94,NE,52,2.0,5.0,46,0.00,,,0.00,229,WeatherHawk,2013-02-04 21:32:00,
2013-02-04 15:38:00,14.0,-3.9,29.95,NE,55,1.0,5.0,44,0.00,,,0.00,210,WeatherHawk,2013-02-04 21:38:00,
2013-02-04 15:43:00,14.0,-3.4,29.95,NE,45,2.0,4.0,45,0.00,,,0.00,196,WeatherHawk,2013-02-04 21:43:00,
2013-02-04 15:48:00,13.8,-3.1,29.94,NNE,29,0.0,4.0,46,0.00,,,0.00,184,WeatherHawk,2013-02-04 21:48:00,
2013-02-04 15:53:00,14.0,-2.9,29.94,NE,56,0.0,3.0,46,0.00,,,0.00,173,WeatherHawk,2013-02-04 21:53:00,
2013-02-04 15:58:00,13.9,-3.0,29.95,NE,48,3.0,3.0,46,0.00,,,0.00,159,WeatherHawk,2013-02-04 21:58:00,
2013-02-04 16:03:00,14.1,-2.4,29.94,NNE,14,1.0,3.0,47,0.00,,,0.00,145,WeatherHawk,2013-02-04 22:03:00,
2013-02-04 16:08:00,13.5,-2.5,29.94,NNE,32,0.0,3.0,48,0.00,,,0.00,131,WeatherHawk,2013-02-04 22:08:00,
2013-02-04 16:13:00,13.8,-1.8,29.94,NNE,26,0.0,3.0,49,0.00,,,0.00,118,WeatherHawk,2013-02-04 22:13:00,
2013-02-04 16:18:00,13.5,-2.1,29.94,NNE,18,1.0,3.0,49,0.00,,,0.00,90,WeatherHawk,2013-02-04 22:18:00,
2013-02-04 16:23:00,13.5,-1.6,29.94,NE,53,0.0,3.0,50,0.00,,,0.00,93,WeatherHawk,2013-02-04 22:23:00,
2013-02-04 16:29:00,13.2,-1.5,29.94,North,10,0.0,3.0,51,0.00,,,0.00,76,WeatherHawk,2013-02-04 22:29:00,
2013-02-04 16:35:00,13.1,-1.6,29.94,North,10,0.0,3.0,51,0.00,,,0.00,59,WeatherHawk,2013-02-04 22:35:00,
2013-02-04 16:40:00,12.8,-1.1,29.94,North,10,0.0,3.0,53,0.00,,,0.00,36,WeatherHawk,2013-02-04 22:40:00,
2013-02-04 16:45:00,11.6,-1.4,29.94,NE,51,0.0,3.0,55,0.00,,,0.00,32,WeatherHawk,2013-02-04 22:45:00,
2013-02-04 16:50:00,12.0,-0.7,29.94,ENE,77,0.0,3.0,56,0.00,,,0.00,15,WeatherHawk,2013-02-04 22:50:00,
2013-02-04 16:55:00,11.8,-0.1,29.94,NNE,25,0.0,1.0,58,0.00,,,0.00,12,WeatherHawk,2013-02-04 22:55:00,
2013-02-04 17:00:00,10.8,-1.1,29.94,NNE,25,0.0,1.0,58,0.00,,,0.00,10,WeatherHawk,2013-02-04 23:00:00,
2013-02-04 17:05:00,8.7,-2.3,29.94,NNE,25,0.0,4.0,60,0.00,,,0.00,7,WeatherHawk,2013-02-04 23:05:00,
2013-02-04 17:10:00,9.4,-0.6,29.94,NNE,25,0.0,4.0,63,0.00,,,0.00,5,WeatherHawk,2013-02-04 23:10:00,
2013-02-04 17:15:00,10.2,1.8,29.95,NNE,25,0.0,1.0,68,0.00,,,0.00,4,WeatherHawk,2013-02-04 23:15:00,
2013-02-04 17:20:00,7.9,-0.7,29.96,NNE,25,0.0,1.0,67,0.00,,,0.00,1,WeatherHawk,2013-02-04 23:20:00,
2013-02-04 17:25:00,9.4,2.9,29.96,NNE,25,0.0,0.0,74,0.00,,,0.00,1,WeatherHawk,2013-02-04 23:25:00,
2013-02-04 17:30:00,9.1,3.1,29.96,NNE,25,0.0,0.0,76,0.00,,,0.00,0,WeatherHawk,2013-02-04 23:30:00,
2013-02-04 17:35:00,7.2,0.9,29.96,South,174,0.0,0.0,75,0.00,,,0.00,0,WeatherHawk,2013-02-04 23:35:00,
2013-02-04 17:40:00,7.7,1.7,29.96,South,174,0.0,0.0,76,0.00,,,0.00,0,WeatherHawk,2013-02-04 23:40:00,
2013-02-04 17:45:00,5.8,0.1,29.97,South,174,0.0,2.0,77,0.00,,,0.00,1,WeatherHawk,2013-02-04 23:45:00,
2013-02-04 17:50:00,7.9,3.3,29.96,South,174,0.0,-999.0,81,0.00,,,0.00,0,WeatherHawk,2013-02-04 23:50:00,
2013-02-04 17:55:00,8.0,3.7,29.96,South,173,0.0,2.0,82,0.00,,,0.00,0,WeatherHawk,2013-02-04 23:55:00,
2013-02-04 18:00:00,6.7,1.8,29.96,South,174,0.0,2.0,80,0.00,,,0.00,0,WeatherHawk,2013-02-05 00:00:00,
2013-02-04 18:05:00,7.1,2.8,29.96,South,174,0.0,0.0,82,0.00,,,0.00,0,WeatherHawk,2013-02-05 00:05:00,
2013-02-04 18:10:00,7.5,3.2,29.96,South,174,0.0,0.0,82,0.00,,,0.00,0,WeatherHawk,2013-02-05 00:10:00,
2013-02-04 18:15:00,6.9,2.1,29.96,South,174,0.0,0.0,80,0.00,,,0.00,0,WeatherHawk,2013-02-05 00:15:00,
2013-02-04 18:20:00,6.3,1.5,29.96,South,174,0.0,0.0,80,0.00,,,0.00,0,WeatherHawk,2013-02-05 00:20:00,
2013-02-04 18:25:00,6.0,1.2,29.96,South,174,0.0,0.0,80,0.00,,,0.00,0,WeatherHawk,2013-02-05 00:25:00,
2013-02-04 18:30:00,5.9,1.6,29.96,South,174,0.0,0.0,82,0.00,,,0.00,1,WeatherHawk,2013-02-05 00:30:00,
2013-02-04 18:35:00,7.0,2.9,29.96,South,174,0.0,0.0,83,0.00,,,0.00,0,WeatherHawk,2013-02-05 00:35:00,
2013-02-04 18:40:00,6.6,3.1,29.97,South,174,0.0,0.0,85,0.00,,,0.00,0,WeatherHawk,2013-02-05 00:40:00,
2013-02-04 18:45:00,6.3,2.0,29.96,South,174,0.0,0.0,82,0.00,,,0.00,0,WeatherHawk,2013-02-05 00:45:00,
2013-02-04 18:50:00,7.1,3.1,29.96,South,174,0.0,0.0,83,0.00,,,0.00,1,WeatherHawk,2013-02-05 00:50:00,
2013-02-04 18:55:00,7.2,3.5,29.97,South,174,0.0,0.0,84,0.00,,,0.00,0,WeatherHawk,2013-02-05 00:55:00,
2013-02-04 19:00:00,8.6,5.0,29.98,South,174,0.0,0.0,85,0.00,,,0.00,1,WeatherHawk,2013-02-05 01:00:00,
2013-02-04 19:05:00,8.3,4.4,29.98,South,174,0.0,0.0,84,0.00,,,0.00,0,WeatherHawk,2013-02-05 01:05:00,
2013-02-04 19:10:00,7.8,3.2,29.98,South,174,0.0,0.0,81,0.00,,,0.00,0,WeatherHawk,2013-02-05 01:10:00,
2013-02-04 19:15:00,7.4,2.8,29.98,South,174,0.0,0.0,81,0.00,,,0.00,0,WeatherHawk,2013-02-05 01:15:00,
2013-02-04 19:20:00,8.6,4.8,29.98,South,174,0.0,0.0,84,0.00,,,0.00,0,WeatherHawk,2013-02-05 01:20:00,
2013-02-04 19:25:00,8.4,4.3,29.98,South,174,0.0,0.0,83,0.00,,,0.00,0,WeatherHawk,2013-02-05 01:25:00,
2013-02-04 19:30:00,8.3,4.5,29.98,South,174,0.0,0.0,84,0.00,,,0.00,0,WeatherHawk,2013-02-05 01:30:00,
2013-02-04 19:35:00,8.1,4.0,29.97,South,174,0.0,0.0,83,0.00,,,0.00,0,WeatherHawk,2013-02-05 01:35:00,
2013-02-04 19:40:00,8.7,4.6,29.98,South,174,0.0,0.0,83,0.00,,,0.00,0,WeatherHawk,2013-02-05 01:40:00,
2013-02-04 19:45:00,9.4,5.3,29.98,South,174,0.0,0.0,83,0.00,,,0.00,0,WeatherHawk,2013-02-05 01:45:00,
2013-02-04 19:50:00,8.0,2.8,29.98,South,174,0.0,0.0,79,0.00,,,0.00,0,WeatherHawk,2013-02-05 01:50:00,
2013-02-04 19:55:00,7.6,2.2,29.97,South,174,0.0,0.0,78,0.00,,,0.00,0,WeatherHawk,2013-02-05 01:55:00,
2013-02-04 20:00:00,8.8,3.9,29.98,South,174,0.0,0.0,80,0.00,,,0.00,0,WeatherHawk,2013-02-05 02:00:00,
2013-02-04 20:05:00,9.4,5.3,29.97,South,174,0.0,0.0,83,0.00,,,0.00,0,WeatherHawk,2013-02-05 02:05:00,
2013-02-04 20:10:00,8.7,4.1,29.97,South,174,0.0,0.0,81,0.00,,,0.00,0,WeatherHawk,2013-02-05 02:10:00,
2013-02-04 20:15:00,8.2,3.3,29.97,South,174,0.0,0.0,80,0.00,,,0.00,0,WeatherHawk,2013-02-05 02:15:00,
2013-02-04 20:20:00,8.8,4.2,29.98,South,174,0.0,0.0,81,0.00,,,0.00,0,WeatherHawk,2013-02-05 02:20:00,
2013-02-04 20:25:00,7.7,3.6,29.97,South,174,0.0,0.0,83,0.00,,,0.00,0,WeatherHawk,2013-02-05 02:25:00,
2013-02-04 20:30:00,8.7,5.2,29.97,South,174,0.0,0.0,85,0.00,,,0.00,0,WeatherHawk,2013-02-05 02:30:00,
2013-02-04 20:35:00,8.0,4.2,29.97,South,174,0.0,0.0,84,0.00,,,0.00,0,WeatherHawk,2013-02-05 02:35:00,
2013-02-04 20:40:00,8.5,4.4,29.97,SSE,165,0.0,0.0,83,0.00,,,0.00,0,WeatherHawk,2013-02-05 02:40:00,
2013-02-04 20:45:00,8.9,4.0,29.98,SSE,165,2.0,-999.0,80,0.00,,,0.00,0,WeatherHawk,2013-02-05 02:45:00,
2013-02-04 20:50:00,8.9,3.5,29.98,SSE,165,2.0,0.0,78,0.00,,,0.00,0,WeatherHawk,2013-02-05 02:50:00,
2013-02-04 20:55:00,8.5,2.5,29.97,SSE,165,0.0,-999.0,76,0.00,,,0.00,0,WeatherHawk,2013-02-05 02:55:00,
2013-02-04 21:00:00,7.6,1.7,29.97,SSE,165,0.0,1.0,76,0.00,,,0.00,0,WeatherHawk,2013-02-05 03:00:00,
2013-02-04 21:05:00,6.2,0.3,29.97,SSE,165,0.0,2.0,76,0.00,,,0.00,0,WeatherHawk,2013-02-05 03:05:00,
2013-02-04 21:10:00,6.7,1.6,29.97,SSE,165,0.0,2.0,79,0.00,,,0.00,1,WeatherHawk,2013-02-05 03:10:00,
2013-02-04 21:15:00,6.7,1.3,29.97,SSE,165,0.0,0.0,78,0.00,,,0.00,0,WeatherHawk,2013-02-05 03:15:00,
2013-02-04 21:20:00,7.1,1.9,29.97,SSE,165,0.0,0.0,79,0.00,,,0.00,0,WeatherHawk,2013-02-05 03:20:00,
2013-02-04 21:26:00,6.2,0.9,29.97,SSE,165,0.0,0.0,78,0.00,,,0.00,0,WeatherHawk,2013-02-05 03:26:00,
2013-02-04 21:31:00,6.8,1.9,29.96,SSE,165,0.0,0.0,80,0.00,,,0.00,0,WeatherHawk,2013-02-05 03:31:00,
2013-02-04 21:36:00,6.8,2.2,29.97,SSE,165,0.0,-999.0,81,0.00,,,0.00,0,WeatherHawk,2013-02-05 03:36:00,
2013-02-04 21:41:00,6.8,2.2,29.96,SSE,165,0.0,0.0,81,0.00,,,0.00,0,WeatherHawk,2013-02-05 03:41:00,
2013-02-04 21:46:00,8.0,3.6,29.96,SSE,165,0.0,1.0,82,0.00,,,0.00,0,WeatherHawk,2013-02-05 03:46:00,
2013-02-04 21:51:00,8.1,3.5,29.96,SSE,162,0.0,1.0,81,0.00,,,0.00,1,WeatherHawk,2013-02-05 03:51:00,
2013-02-04 21:56:00,7.8,2.9,29.96,SSE,162,0.0,0.0,80,0.00,,,0.00,0,WeatherHawk,2013-02-05 03:56:00,
2013-02-04 22:01:00,8.0,3.2,29.97,SSE,162,0.0,0.0,80,0.00,,,0.00,0,WeatherHawk,2013-02-05 04:01:00,
2013-02-04 22:06:00,7.7,2.5,29.96,SSE,162,0.0,2.0,79,0.00,,,0.00,0,WeatherHawk,2013-02-05 04:06:00,
2013-02-04 22:11:00,7.1,2.2,29.97,SSE,162,0.0,-999.0,80,0.00,,,0.00,0,WeatherHawk,2013-02-05 04:11:00,
2013-02-04 22:16:00,7.4,2.8,29.96,SSE,162,0.0,-999.0,81,0.00,,,0.00,0,WeatherHawk,2013-02-05 04:16:00,
2013-02-04 22:21:00,7.1,2.6,29.96,SSE,162,0.0,-999.0,81,0.00,,,0.00,1,WeatherHawk,2013-02-05 04:21:00,
2013-02-04 22:26:00,7.3,3.0,29.95,SSE,162,0.0,-999.0,82,0.00,,,0.00,1,WeatherHawk,2013-02-05 04:26:00,
2013-02-04 22:31:00,6.7,2.4,29.95,SSE,162,1.0,-999.0,82,0.00,,,0.00,0,WeatherHawk,2013-02-05 04:31:00,
2013-02-04 22:36:00,7.8,3.8,29.95,SSE,150,1.0,-999.0,83,0.00,,,0.00,0,WeatherHawk,2013-02-05 04:36:00,
2013-02-04 22:43:00,8.1,3.8,29.95,SSE,156,0.0,0.0,82,0.00,,,0.00,0,WeatherHawk,2013-02-05 04:43:00,
2013-02-04 22:50:00,8.9,4.0,29.94,SSE,152,4.0,4.0,80,0.00,,,0.00,0,WeatherHawk,2013-02-05 04:50:00,
2013-02-04 22:58:00,9.0,3.6,29.94,SSE,162,2.0,4.0,78,0.00,,,0.00,0,WeatherHawk,2013-02-05 04:58:00,
2013-02-04 23:01:00,7.7,1.7,29.94,SSE,163,0.0,4.0,76,0.00,,,0.00,0,WeatherHawk,2013-02-05 05:01:00,
2013-02-04 23:06:00,7.9,2.3,29.94,SSE,155,2.0,4.0,77,0.00,,,0.00,0,WeatherHawk,2013-02-05 05:06:00,
2013-02-04 23:11:00,8.1,2.5,29.94,SSE,164,2.0,4.0,77,0.00,,,0.00,0,WeatherHawk,2013-02-05 05:11:00,
2013-02-04 23:16:00,8.1,2.2,29.94,South,170,2.0,3.0,76,0.00,,,0.00,2,WeatherHawk,2013-02-05 05:16:00,
2013-02-04 23:21:00,8.2,1.9,29.94,SSE,155,1.0,3.0,75,0.00,,,0.00,0,WeatherHawk,2013-02-05 05:21:00,
2013-02-04 23:26:00,8.2,2.0,29.94,SSE,154,3.0,4.0,75,0.00,,,0.00,0,WeatherHawk,2013-02-05 05:26:00,
2013-02-04 23:31:00,7.9,1.7,29.94,SSE,158,2.0,4.0,75,0.00,,,0.00,0,WeatherHawk,2013-02-05 05:31:00,
2013-02-04 23:36:00,7.8,1.6,29.94,SSE,160,2.0,4.0,75,0.00,,,0.00,0,WeatherHawk,2013-02-05 05:36:00,
2013-02-04 23:41:00,7.8,1.6,29.93,SSE,156,2.0,4.0,75,0.00,,,0.00,0,WeatherHawk,2013-02-05 05:41:00,
2013-02-04 23:46:00,7.7,1.5,29.93,SSE,154,2.0,4.0,75,0.00,,,0.00,0,WeatherHawk,2013-02-05 05:46:00,
2013-02-04 23:51:00,8.0,1.8,29.93,SSE,160,2.0,4.0,75,0.00,,,0.00,0,WeatherHawk,2013-02-05 05:51:00,
2013-02-04 23:56:00,8.1,1.6,29.93,SSE,159,2.0,5.0,74,0.00,,,0.00,1,WeatherHawk,2013-02-05 05:56:00,